Time;durP1;ratioP1;P1;durP2;ratioP2;P2;SDS_P1;SDS_P2;PMS_P1;PMS_P2;Temp;Humidity;BMP_temperature;BMP_pressure;BME280_temperature;BME280_humidity;BME280_pressure;Samples;Min_cycle;Max_cycle;Signal;HPM_P1;HPM_P2
2021/12/31 00:01:11;0.00;0.00;0.62;0.00;0.00;0.62;1.70;1.20;;;23.80;32.60;;;;;;2249776;61;20433;-62
2021/12/31 00:03:56;0.00;0.00;0.62;0.00;0.00;0.62;2.70;1.77;;;23.80;32.70;;;;;;2248479;61;20687;-62
2021/12/31 00:06:44;0.00;0.00;0.62;0.00;0.00;0.62;1.90;1.40;;;23.80;32.70;;;;;;2249580;61;20384;-62
2021/12/31 00:09:29;0.00;0.00;0.62;0.00;0.00;0.62;1.63;1.10;;;23.80;32.70;;;;;;2248402;61;20384;-62
2021/12/31 00:12:14;0.00;0.00;0.62;0.00;0.00;0.62;2.37;1.27;;;23.80;32.70;;;;;;2249441;61;20449;-62
2021/12/31 00:14:59;0.00;0.00;0.62;0.00;0.00;0.62;2.07;1.80;;;23.80;32.70;;;;;;2249533;61;20393;-62
2021/12/31 00:17:44;0.00;0.00;0.62;0.00;0.00;0.62;2.30;1.30;;;23.80;32.60;;;;;;2248428;61;20708;-61
2021/12/31 00:20:29;0.00;0.00;0.62;0.00;0.00;0.62;2.03;1.40;;;23.80;32.60;;;;;;2250184;61;20392;-62
2021/12/31 00:23:18;0.00;0.00;0.62;0.00;0.00;0.62;2.93;1.20;;;23.80;32.70;;;;;;2250339;61;20477;-61
2021/12/31 00:26:03;0.00;0.00;0.62;0.00;0.00;0.62;1.63;1.30;;;23.80;32.60;;;;;;2248861;61;20593;-62
2021/12/31 00:28:47;0.00;0.00;0.62;0.00;0.00;0.62;1.80;1.20;;;23.80;32.60;;;;;;2250066;61;20623;-61
2021/12/31 00:31:32;0.00;0.00;0.62;0.00;0.00;0.62;1.93;1.30;;;23.80;32.60;;;;;;2249687;61;20698;-61
2021/12/31 00:34:16;0.00;0.00;0.62;0.00;0.00;0.62;1.63;1.10;;;23.80;32.60;;;;;;2249992;61;20401;-62
2021/12/31 00:37:00;0.00;0.00;0.62;0.00;0.00;0.62;1.83;1.30;;;23.80;32.60;;;;;;2250004;61;20360;-61
2021/12/31 00:39:46;0.00;0.00;0.62;0.00;0.00;0.62;2.83;1.27;;;23.80;32.60;;;;;;2248401;61;20415;-62
2021/12/31 00:42:31;0.00;0.00;0.62;0.00;0.00;0.62;1.67;1.30;;;23.80;32.60;;;;;;2250175;61;20387;-61
2021/12/31 00:45:19;0.00;0.00;0.62;0.00;0.00;0.62;2.40;1.50;;;23.80;32.60;;;;;;2249890;61;20359;-61
2021/12/31 00:48:04;0.00;0.00;0.62;0.00;0.00;0.62;1.80;1.20;;;23.90;32.70;;;;;;2248525;61;20387;-62
2021/12/31 00:50:49;0.00;0.00;0.62;0.00;0.00;0.62;1.80;0.90;;;23.90;32.70;;;;;;2250194;61;20687;-62
2021/12/31 00:53:34;0.00;0.00;0.62;0.00;0.00;0.62;2.03;1.30;;;23.90;32.60;;;;;;2249414;61;20384;-61
2021/12/31 00:56:20;0.00;0.00;0.62;0.00;0.00;0.62;2.60;1.20;;;23.90;32.60;;;;;;2249854;61;20748;-61
2021/12/31 00:59:04;0.00;0.00;0.62;0.00;0.00;0.62;1.70;1.20;;;23.90;32.60;;;;;;2250029;61;20459;-62
2021/12/31 01:01:49;0.00;0.00;0.62;0.00;0.00;0.62;1.50;1.00;;;23.90;32.60;;;;;;2248083;61;20409;-61
2021/12/31 01:04:34;0.00;0.00;0.62;0.00;0.00;0.62;1.60;1.13;;;23.90;32.60;;;;;;2250150;61;20367;-61
2021/12/31 01:07:18;0.00;0.00;0.62;0.00;0.00;0.62;1.53;1.00;;;23.90;32.60;;;;;;2249926;61;20388;-61
2021/12/31 01:10:05;0.00;0.00;0.62;0.00;0.00;0.62;1.97;1.20;;;23.90;32.60;;;;;;2248613;61;20421;-61
2021/12/31 01:12:51;0.00;0.00;0.62;0.00;0.00;0.62;1.50;0.90;;;23.90;32.60;;;;;;2250012;61;20403;-62
2021/12/31 01:15:43;0.00;0.00;0.62;0.00;0.00;0.62;1.40;1.10;;;23.90;32.60;;;;;;2249600;61;20456;-61
2021/12/31 01:19:45;0.00;0.00;0.62;0.00;0.00;0.62;1.67;0.90;;;23.90;32.60;;;;;;2249355;61;20707;-62
2021/12/31 01:21:33;0.00;0.00;0.62;0.00;0.00;0.62;1.37;0.83;;;23.90;32.60;;;;;;2250122;61;20437;-61
2021/12/31 01:24:19;0.00;0.00;0.62;0.00;0.00;0.62;1.40;0.83;;;23.90;32.60;;;;;;2248618;61;20361;-61
2021/12/31 01:27:04;0.00;0.00;0.62;0.00;0.00;0.62;1.63;0.90;;;23.90;32.60;;;;;;2249877;61;20406;-61
2021/12/31 01:29:51;0.00;0.00;0.62;0.00;0.00;0.62;1.73;1.00;;;23.90;32.60;;;;;;2249562;61;20554;-62
2021/12/31 01:32:35;0.00;0.00;0.62;0.00;0.00;0.62;1.40;0.90;;;23.90;32.60;;;;;;2248639;61;20728;-61
2021/12/31 01:35:20;0.00;0.00;0.62;0.00;0.00;0.62;1.60;0.80;;;24.00;32.70;;;;;;2249753;61;20437;-62
2021/12/31 01:38:05;0.00;0.00;0.62;0.00;0.00;0.62;1.43;0.87;;;24.00;32.60;;;;;;2249413;61;20360;-62
2021/12/31 01:40:50;0.00;0.00;0.62;0.00;0.00;0.62;1.70;0.90;;;24.00;32.60;;;;;;2249697;61;20376;-62
2021/12/31 01:43:35;0.00;0.00;0.62;0.00;0.00;0.62;2.23;0.80;;;24.00;32.70;;;;;;2249769;61;20415;-61
2021/12/31 01:46:21;0.00;0.00;0.62;0.00;0.00;0.62;1.60;0.97;;;23.90;32.60;;;;;;2248591;61;20385;-62
2021/12/31 01:49:17;0.00;0.00;0.62;0.00;0.00;0.62;1.50;0.80;;;24.00;32.70;;;;;;2248129;61;20393;-62
2021/12/31 01:52:03;0.00;0.00;0.62;0.00;0.00;0.62;1.73;1.10;;;24.00;32.70;;;;;;2245660;61;20443;-62
2021/12/31 01:54:47;0.00;0.00;0.62;0.00;0.00;0.62;1.50;0.80;;;24.00;32.70;;;;;;2244632;61;20643;-62
2021/12/31 01:57:33;0.00;0.00;0.62;0.00;0.00;0.62;1.67;1.03;;;24.00;32.70;;;;;;2245991;61;20733;-61
2021/12/31 02:00:18;0.00;0.00;0.62;0.00;0.00;0.62;1.50;1.10;;;24.00;32.60;;;;;;2245596;61;20385;-62
2021/12/31 02:03:05;0.00;0.00;0.62;0.00;0.00;0.62;1.43;1.07;;;24.00;32.60;;;;;;2245743;61;20362;-62
2021/12/31 02:05:49;0.00;0.00;0.62;0.00;0.00;0.62;2.10;1.20;;;24.00;32.60;;;;;;2245995;61;20441;-61
2021/12/31 02:08:35;0.00;0.00;0.62;0.00;0.00;0.62;1.70;1.20;;;24.00;32.60;;;;;;2244205;61;20361;-62
2021/12/31 02:11:20;0.00;0.00;0.62;0.00;0.00;0.62;1.40;0.90;;;23.90;32.60;;;;;;2246035;61;20413;-61
2021/12/31 02:14:05;0.00;0.00;0.62;0.00;0.00;0.62;1.80;0.80;;;23.90;32.60;;;;;;2245834;61;20576;-61
2021/12/31 02:16:50;0.00;0.00;0.62;0.00;0.00;0.62;1.60;1.10;;;23.90;32.70;;;;;;2244469;61;20362;-61
2021/12/31 02:19:37;0.00;0.00;0.62;0.00;0.00;0.62;1.83;1.20;;;23.90;32.70;;;;;;2245847;61;20456;-62
2021/12/31 02:22:27;0.00;0.00;0.62;0.00;0.00;0.62;1.80;1.10;;;23.90;32.90;;;;;;2245528;61;20830;-63
2021/12/31 02:25:11;0.00;0.00;0.62;0.00;0.00;0.62;1.60;1.10;;;23.80;32.80;;;;;;2248001;61;20365;-61
2021/12/31 02:27:56;0.00;0.00;0.62;0.00;0.00;0.62;2.13;1.07;;;23.80;32.90;;;;;;2245681;61;20421;-62
2021/12/31 02:30:40;0.00;0.00;0.62;0.00;0.00;0.62;1.50;0.93;;;23.80;33.00;;;;;;2244324;61;20412;-61
2021/12/31 02:33:25;0.00;0.00;0.62;0.00;0.00;0.62;1.73;1.10;;;23.80;33.00;;;;;;2245876;61;20426;-61
2021/12/31 02:36:10;0.00;0.00;0.62;0.00;0.00;0.62;1.60;1.00;;;23.80;33.00;;;;;;2245859;61;20362;-62
2021/12/31 02:38:56;0.00;0.00;0.62;0.00;0.00;0.62;1.67;1.07;;;23.80;33.00;;;;;;2244300;61;20428;-61
2021/12/31 02:41:41;0.00;0.00;0.62;0.00;0.00;0.62;1.80;1.00;;;23.70;33.00;;;;;;2245642;61;20781;-61
2021/12/31 02:44:25;0.00;0.00;0.62;0.00;0.00;0.62;1.40;0.90;;;23.70;33.10;;;;;;2245393;61;20369;-62
2021/12/31 02:47:10;0.00;0.00;0.62;0.00;0.00;0.62;2.17;1.50;;;23.70;33.10;;;;;;2244955;61;20755;-62
2021/12/31 02:49:54;0.00;0.00;0.62;0.00;0.00;0.62;1.63;1.20;;;23.70;33.20;;;;;;2245869;61;20786;-62
2021/12/31 02:52:40;0.00;0.00;0.62;0.00;0.00;0.62;3.00;1.33;;;23.70;33.20;;;;;;2244410;61;20413;-62
2021/12/31 02:55:30;0.00;0.00;0.62;0.00;0.00;0.62;1.30;1.00;;;23.70;33.30;;;;;;2245791;61;20401;-61
2021/12/31 02:58:15;0.00;0.00;0.62;0.00;0.00;0.62;2.20;1.27;;;23.60;33.20;;;;;;2245567;61;20701;-61
2021/12/31 03:01:00;0.00;0.00;0.62;0.00;0.00;0.62;2.20;1.50;;;23.60;33.20;;;;;;2244503;61;20741;-62
2021/12/31 03:03:45;0.00;0.00;0.62;0.00;0.00;0.62;1.50;1.13;;;23.60;33.30;;;;;;2245722;61;20438;-62
2021/12/31 03:06:30;0.00;0.00;0.62;0.00;0.00;0.62;1.50;1.00;;;23.60;33.30;;;;;;2245417;61;20397;-62
2021/12/31 03:09:17;0.00;0.00;0.62;0.00;0.00;0.62;1.83;1.03;;;23.60;33.30;;;;;;2244561;61;20381;-62
2021/12/31 03:12:06;0.00;0.00;0.62;0.00;0.00;0.62;2.23;1.30;;;23.60;33.40;;;;;;2245656;61;20365;-62
2021/12/31 03:14:50;0.00;0.00;0.62;0.00;0.00;0.62;2.07;1.27;;;23.60;33.40;;;;;;2244323;61;20525;-62
2021/12/31 03:17:36;0.00;0.00;0.62;0.00;0.00;0.62;1.80;1.23;;;23.50;33.30;;;;;;2245877;61;20361;-62
2021/12/31 03:20:35;0.00;0.00;0.62;0.00;0.00;0.62;2.50;1.60;;;23.50;33.40;;;;;;2245677;61;20398;-61
2021/12/31 03:23:20;0.00;0.00;0.62;0.00;0.00;0.62;1.40;1.10;;;23.50;33.40;;;;;;2244375;61;20455;-61
2021/12/31 03:26:04;0.00;0.00;0.62;0.00;0.00;0.62;2.77;1.57;;;23.50;33.40;;;;;;2248000;61;20563;-62
2021/12/31 03:28:51;0.00;0.00;0.62;0.00;0.00;0.62;2.47;1.80;;;23.50;33.50;;;;;;2245288;61;20369;-62
2021/12/31 03:31:35;0.00;0.00;0.62;0.00;0.00;0.62;1.73;1.57;;;23.40;33.40;;;;;;2244745;61;20596;-62
2021/12/31 03:34:20;0.00;0.00;0.62;0.00;0.00;0.62;1.63;1.40;;;23.40;33.50;;;;;;2245599;61;20412;-62
2021/12/31 03:37:05;0.00;0.00;0.62;0.00;0.00;0.62;1.50;1.40;;;23.40;34.20;;;;;;2244270;61;20380;-62
2021/12/31 03:39:49;0.00;0.00;0.62;0.00;0.00;0.62;1.90;1.53;;;23.40;33.50;;;;;;2245531;61;20441;-62
2021/12/31 03:42:34;0.00;0.00;0.62;0.00;0.00;0.62;3.43;2.20;;;23.40;33.60;;;;;;2245669;61;20401;-62
2021/12/31 03:45:20;0.00;0.00;0.62;0.00;0.00;0.62;2.80;1.80;;;23.40;33.60;;;;;;2244323;61;20389;-62
2021/12/31 03:48:05;0.00;0.00;0.62;0.00;0.00;0.62;2.20;2.00;;;23.40;33.80;;;;;;2245852;61;20478;-62
2021/12/31 03:50:50;0.00;0.00;0.62;0.00;0.00;0.62;2.23;1.73;;;23.30;33.70;;;;;;2245615;61;20515;-62
2021/12/31 03:53:35;0.00;0.00;0.62;0.00;0.00;0.62;2.30;2.00;;;23.30;33.70;;;;;;2245463;61;20405;-61
2021/12/31 03:56:21;0.00;0.00;0.62;0.00;0.00;0.62;2.43;1.90;;;23.30;33.70;;;;;;2246537;61;20377;-62
2021/12/31 03:59:06;0.00;0.00;0.62;0.00;0.00;0.62;2.50;1.70;;;23.30;33.80;;;;;;2244618;61;20381;-62
2021/12/31 04:01:52;0.00;0.00;0.62;0.00;0.00;0.62;2.50;2.00;;;23.30;33.90;;;;;;2246375;61;20424;-62
2021/12/31 04:04:36;0.00;0.00;0.62;0.00;0.00;0.62;3.00;1.63;;;23.30;33.90;;;;;;2246447;61;20360;-62
2021/12/31 04:07:21;0.00;0.00;0.62;0.00;0.00;0.62;2.70;1.40;;;23.20;33.80;;;;;;2244643;61;20400;-62
2021/12/31 04:10:07;0.00;0.00;0.62;0.00;0.00;0.62;2.53;2.03;;;23.20;33.80;;;;;;2246234;61;20409;-62
2021/12/31 04:12:52;0.00;0.00;0.62;0.00;0.00;0.62;2.37;1.63;;;23.20;33.90;;;;;;2246300;61;20646;-62
2021/12/31 04:15:36;0.00;0.00;0.62;0.00;0.00;0.62;4.17;2.37;;;23.20;33.90;;;;;;2245072;61;20356;-62
2021/12/31 04:18:25;0.00;0.00;0.62;0.00;0.00;0.62;2.60;1.83;;;23.20;34.00;;;;;;2246178;61;20389;-62
2021/12/31 04:21:10;0.00;0.00;0.62;0.00;0.00;0.62;4.10;2.20;;;23.20;34.00;;;;;;2244994;61;20617;-62
2021/12/31 04:24:13;0.00;0.00;0.62;0.00;0.00;0.62;4.27;2.50;;;23.10;33.90;;;;;;2246433;61;20365;-62
2021/12/31 04:26:58;0.00;0.00;0.62;0.00;0.00;0.62;3.20;2.00;;;23.10;33.90;;;;;;2246227;61;20389;-62
2021/12/31 04:29:49;0.00;0.00;0.62;0.00;0.00;0.62;3.07;1.80;;;23.10;34.00;;;;;;2244506;61;20486;-61
2021/12/31 04:32:34;0.00;0.00;0.62;0.00;0.00;0.62;2.20;1.70;;;23.10;34.00;;;;;;2246291;61;20625;-62
2021/12/31 04:35:20;0.00;0.00;0.62;0.00;0.00;0.62;2.17;1.73;;;23.10;34.10;;;;;;2245684;61;20381;-62
2021/12/31 04:38:04;0.00;0.00;0.62;0.00;0.00;0.62;2.57;1.83;;;23.10;34.10;;;;;;2247588;61;20458;-61
2021/12/31 04:40:49;0.00;0.00;0.62;0.00;0.00;0.62;2.37;1.90;;;23.10;34.10;;;;;;2246121;61;20381;-62
2021/12/31 04:43:33;0.00;0.00;0.62;0.00;0.00;0.62;3.03;1.90;;;23.10;34.10;;;;;;2244697;61;20376;-62
2021/12/31 04:46:18;0.00;0.00;0.62;0.00;0.00;0.62;3.70;2.10;;;23.10;34.10;;;;;;2246335;61;20374;-62
2021/12/31 04:49:03;0.00;0.00;0.62;0.00;0.00;0.62;2.90;2.60;;;23.10;34.20;;;;;;2245750;61;20611;-62
2021/12/31 04:51:49;0.00;0.00;0.62;0.00;0.00;0.62;3.00;1.90;;;23.00;34.10;;;;;;2244798;61;20361;-62
2021/12/31 04:54:33;0.00;0.00;0.62;0.00;0.00;0.62;2.33;1.90;;;23.00;34.20;;;;;;2246237;61;20682;-62
2021/12/31 04:57:20;0.00;0.00;0.62;0.00;0.00;0.62;2.73;1.80;;;23.00;34.20;;;;;;2245801;61;20428;-62
2021/12/31 05:00:07;0.00;0.00;0.62;0.00;0.00;0.62;3.27;2.20;;;23.00;34.20;;;;;;2245195;61;20426;-61
2021/12/31 05:02:51;0.00;0.00;0.62;0.00;0.00;0.62;3.03;2.00;;;23.00;34.30;;;;;;2245935;61;20369;-62
2021/12/31 05:05:36;0.00;0.00;0.62;0.00;0.00;0.62;2.70;1.83;;;23.00;34.30;;;;;;2244922;61;20357;-62
2021/12/31 05:08:22;0.00;0.00;0.62;0.00;0.00;0.62;2.00;1.80;;;23.00;34.40;;;;;;2246080;61;20765;-61
2021/12/31 05:11:07;0.00;0.00;0.62;0.00;0.00;0.62;2.10;1.70;;;22.90;34.30;;;;;;2245837;61;20397;-62
2021/12/31 05:13:51;0.00;0.00;0.62;0.00;0.00;0.62;3.70;2.10;;;22.90;34.40;;;;;;2244726;61;20365;-62
2021/12/31 05:16:38;0.00;0.00;0.62;0.00;0.00;0.62;3.17;1.63;;;22.90;35.20;;;;;;2246232;61;20398;-62
2021/12/31 05:19:22;0.00;0.00;0.62;0.00;0.00;0.62;6.20;1.90;;;22.90;34.50;;;;;;2245857;61;20389;-62
2021/12/31 05:22:07;0.00;0.00;0.62;0.00;0.00;0.62;2.47;1.50;;;22.90;34.70;;;;;;2245198;61;20482;-62
2021/12/31 05:24:52;0.00;0.00;0.62;0.00;0.00;0.62;2.97;1.87;;;22.90;34.70;;;;;;2248313;61;20803;-62
2021/12/31 05:27:37;0.00;0.00;0.62;0.00;0.00;0.62;2.13;1.30;;;22.90;34.70;;;;;;2245625;61;20384;-62
2021/12/31 05:30:22;0.00;0.00;0.62;0.00;0.00;0.62;2.87;1.50;;;22.90;34.70;;;;;;2246021;61;20420;-62
2021/12/31 05:33:06;0.00;0.00;0.62;0.00;0.00;0.62;2.47;1.60;;;22.90;34.70;;;;;;2245782;61;20717;-62
2021/12/31 05:35:51;0.00;0.00;0.62;0.00;0.00;0.62;2.53;1.53;;;22.90;34.80;;;;;;2244765;61;20402;-62
2021/12/31 05:38:35;0.00;0.00;0.62;0.00;0.00;0.62;1.93;1.30;;;22.80;34.70;;;;;;2245830;61;20353;-63
2021/12/31 05:41:22;0.00;0.00;0.62;0.00;0.00;0.62;2.70;1.47;;;22.80;34.70;;;;;;2246008;61;20377;-63
2021/12/31 05:44:06;0.00;0.00;0.62;0.00;0.00;0.62;2.20;1.30;;;22.80;34.70;;;;;;2244781;61;20425;-62
2021/12/31 05:46:53;0.00;0.00;0.62;0.00;0.00;0.62;2.03;1.23;;;22.80;34.70;;;;;;2245837;61;20446;-63
2021/12/31 05:49:37;0.00;0.00;0.62;0.00;0.00;0.62;2.30;1.43;;;22.80;34.80;;;;;;2245768;61;20705;-62
2021/12/31 05:52:22;0.00;0.00;0.62;0.00;0.00;0.62;2.00;1.30;;;22.80;34.80;;;;;;2245864;61;20718;-62
2021/12/31 05:55:08;0.00;0.00;0.62;0.00;0.00;0.62;2.27;1.57;;;22.80;34.80;;;;;;2245828;61;20365;-63
2021/12/31 05:57:55;0.00;0.00;0.62;0.00;0.00;0.62;2.50;1.40;;;22.80;34.80;;;;;;2244336;61;20365;-63
2021/12/31 06:00:40;0.00;0.00;0.62;0.00;0.00;0.62;3.00;1.30;;;22.80;34.90;;;;;;2245791;61;20384;-62
2021/12/31 06:03:25;0.00;0.00;0.62;0.00;0.00;0.62;2.00;1.20;;;22.70;34.80;;;;;;2246016;61;20378;-62
2021/12/31 06:06:09;0.00;0.00;0.62;0.00;0.00;0.62;2.80;1.33;;;22.70;34.80;;;;;;2244574;61;20377;-62
2021/12/31 06:08:54;0.00;0.00;0.62;0.00;0.00;0.62;2.90;1.20;;;22.70;34.80;;;;;;2245551;61;20368;-62
2021/12/31 06:11:39;0.00;0.00;0.62;0.00;0.00;0.62;2.00;1.10;;;22.70;34.80;;;;;;2245747;61;20362;-62
2021/12/31 06:14:25;0.00;0.00;0.62;0.00;0.00;0.62;1.87;1.13;;;22.70;34.70;;;;;;2244731;61;20369;-62
2021/12/31 06:17:11;0.00;0.00;0.62;0.00;0.00;0.62;1.87;1.17;;;22.70;34.70;;;;;;2245830;61;20429;-63
2021/12/31 06:19:55;0.00;0.00;0.62;0.00;0.00;0.62;1.70;1.27;;;22.70;34.70;;;;;;2244593;61;20381;-63
2021/12/31 06:22:40;0.00;0.00;0.62;0.00;0.00;0.62;2.77;1.40;;;22.70;34.70;;;;;;2245850;61;20357;-62
2021/12/31 06:25:25;0.00;0.00;0.62;0.00;0.00;0.62;1.90;1.13;;;22.70;34.70;;;;;;2246069;61;20365;-62
2021/12/31 06:28:10;0.00;0.00;0.62;0.00;0.00;0.62;2.00;1.03;;;22.70;34.60;;;;;;2244255;61;20518;-62
2021/12/31 06:30:56;0.00;0.00;0.62;0.00;0.00;0.62;1.80;1.10;;;22.70;34.50;;;;;;2245457;61;20777;-62
2021/12/31 06:33:40;0.00;0.00;0.62;0.00;0.00;0.62;2.53;1.37;;;22.70;34.50;;;;;;2245199;61;20486;-62
2021/12/31 06:36:24;0.00;0.00;0.62;0.00;0.00;0.62;2.13;1.20;;;22.70;34.50;;;;;;2244863;61;20365;-62
2021/12/31 06:39:09;0.00;0.00;0.62;0.00;0.00;0.62;1.77;1.03;;;22.70;34.50;;;;;;2245768;61;20415;-62
2021/12/31 06:41:54;0.00;0.00;0.62;0.00;0.00;0.62;2.57;1.30;;;22.70;34.50;;;;;;2244489;61;20354;-63
2021/12/31 06:44:40;0.00;0.00;0.62;0.00;0.00;0.62;1.67;0.93;;;22.70;34.50;;;;;;2245796;61;20360;-62
2021/12/31 06:47:25;0.00;0.00;0.62;0.00;0.00;0.62;2.33;1.27;;;22.70;34.40;;;;;;2245914;61;20861;-63
2021/12/31 06:50:10;0.00;0.00;0.62;0.00;0.00;0.62;2.40;1.57;;;22.70;34.40;;;;;;2244091;61;20482;-63
2021/12/31 06:52:55;0.00;0.00;0.62;0.00;0.00;0.62;3.67;1.50;;;22.70;34.40;;;;;;2245869;61;20394;-62
2021/12/31 06:55:39;0.00;0.00;0.62;0.00;0.00;0.62;2.17;1.30;;;22.70;34.30;;;;;;2245472;61;20402;-61
2021/12/31 06:58:24;0.00;0.00;0.62;0.00;0.00;0.62;1.70;1.10;;;22.70;34.30;;;;;;2244420;61;20357;-63
2021/12/31 07:01:08;0.00;0.00;0.62;0.00;0.00;0.62;2.43;1.20;;;22.70;34.30;;;;;;2245867;61;20357;-63
2021/12/31 07:03:54;0.00;0.00;0.62;0.00;0.00;0.62;2.90;1.40;;;22.70;34.30;;;;;;2245105;61;20405;-63
2021/12/31 07:06:39;0.00;0.00;0.62;0.00;0.00;0.62;2.13;1.20;;;22.70;34.20;;;;;;2245763;61;20363;-60
2021/12/31 07:09:24;0.00;0.00;0.62;0.00;0.00;0.62;2.40;1.43;;;22.60;34.10;;;;;;2245690;61;20385;-62
2021/12/31 07:12:09;0.00;0.00;0.62;0.00;0.00;0.62;2.03;1.10;;;22.70;34.20;;;;;;2244072;61;20604;-61
2021/12/31 07:14:53;0.00;0.00;0.62;0.00;0.00;0.62;2.43;1.27;;;22.60;34.10;;;;;;2245732;61;20361;-63
2021/12/31 07:17:38;0.00;0.00;0.62;0.00;0.00;0.62;3.03;1.33;;;22.60;34.10;;;;;;2245704;61;20579;-62
2021/12/31 07:20:24;0.00;0.00;0.62;0.00;0.00;0.62;2.07;1.10;;;22.60;34.10;;;;;;2244362;61;20405;-63
2021/12/31 07:23:12;0.00;0.00;0.62;0.00;0.00;0.62;1.87;1.00;;;22.60;34.10;;;;;;2245742;61;20777;-63
2021/12/31 07:25:56;0.00;0.00;0.62;0.00;0.00;0.62;2.00;0.90;;;22.60;34.10;;;;;;2245168;61;20752;-62
2021/12/31 07:28:41;0.00;0.00;0.62;0.00;0.00;0.62;3.53;1.63;;;22.60;34.10;;;;;;2245569;61;20405;-62
2021/12/31 07:31:25;0.00;0.00;0.62;0.00;0.00;0.62;2.43;1.33;;;22.60;34.10;;;;;;2245614;61;20646;-63
2021/12/31 07:34:10;0.00;0.00;0.62;0.00;0.00;0.62;1.80;1.00;;;22.60;34.10;;;;;;2244104;61;20385;-63
2021/12/31 07:36:56;0.00;0.00;0.62;0.00;0.00;0.62;3.50;1.37;;;22.60;34.00;;;;;;2245882;61;20409;-62
2021/12/31 07:39:46;0.00;0.00;0.62;0.00;0.00;0.62;3.17;1.30;;;22.60;34.00;;;;;;2245383;61;20385;-63
2021/12/31 07:42:31;0.00;0.00;0.62;0.00;0.00;0.62;2.50;1.13;;;22.60;33.90;;;;;;2244296;61;20393;-62
2021/12/31 07:45:16;0.00;0.00;0.62;0.00;0.00;0.62;2.43;1.20;;;22.50;33.80;;;;;;2245826;61;20365;-63
2021/12/31 07:48:00;0.00;0.00;0.62;0.00;0.00;0.62;1.97;1.17;;;22.50;33.70;;;;;;2245000;61;20396;-63
2021/12/31 07:50:45;0.00;0.00;0.62;0.00;0.00;0.62;2.13;1.50;;;22.50;33.80;;;;;;2245459;61;20606;-63
2021/12/31 07:53:32;0.00;0.00;0.62;0.00;0.00;0.62;2.53;1.07;;;22.50;33.80;;;;;;2245556;61;20385;-64
2021/12/31 07:56:19;0.00;0.00;0.62;0.00;0.00;0.62;1.87;1.40;;;22.40;33.80;;;;;;2244227;61;20362;-61
2021/12/31 07:59:03;0.00;0.00;0.62;0.00;0.00;0.62;3.00;1.43;;;22.40;33.80;;;;;;2245586;61;20389;-63
2021/12/31 08:01:48;0.00;0.00;0.62;0.00;0.00;0.62;1.60;1.17;;;22.40;33.90;;;;;;2245462;61;20389;-62
2021/12/31 08:04:33;0.00;0.00;0.62;0.00;0.00;0.62;1.60;1.10;;;22.40;33.90;;;;;;2244317;61;20632;-62
2021/12/31 08:07:18;0.00;0.00;0.62;0.00;0.00;0.62;1.90;1.20;;;22.40;34.00;;;;;;2245605;61;20381;-62
2021/12/31 08:10:05;0.00;0.00;0.62;0.00;0.00;0.62;1.70;1.20;;;22.40;34.00;;;;;;2244993;61;20610;-62
2021/12/31 08:12:50;0.00;0.00;0.62;0.00;0.00;0.62;1.90;1.00;;;22.40;34.10;;;;;;2244809;61;20365;-62
2021/12/31 08:15:34;0.00;0.00;0.62;0.00;0.00;0.62;2.87;1.27;;;22.40;34.10;;;;;;2245013;61;20422;-62
2021/12/31 08:18:19;0.00;0.00;0.62;0.00;0.00;0.62;1.83;1.20;;;22.40;34.10;;;;;;2243956;61;20353;-62
2021/12/31 08:21:03;0.00;0.00;0.62;0.00;0.00;0.62;1.67;1.27;;;22.40;34.10;;;;;;2245576;61;20385;-62
2021/12/31 08:23:48;0.00;0.00;0.62;0.00;0.00;0.62;2.83;1.33;;;22.40;34.00;;;;;;2245363;61;20350;-62
2021/12/31 08:26:34;0.00;0.00;0.62;0.00;0.00;0.62;2.50;1.40;;;22.40;34.00;;;;;;2244229;61;20393;-61
2021/12/31 08:29:19;0.00;0.00;0.62;0.00;0.00;0.62;1.90;1.20;;;22.40;34.00;;;;;;2245150;61;20386;-62
2021/12/31 08:32:05;0.00;0.00;0.62;0.00;0.00;0.62;2.73;1.13;;;22.40;34.00;;;;;;2245125;61;20393;-62
2021/12/31 08:34:49;0.00;0.00;0.62;0.00;0.00;0.62;2.60;1.43;;;22.40;34.00;;;;;;2244642;61;20377;-62
2021/12/31 08:37:35;0.00;0.00;0.62;0.00;0.00;0.62;2.37;1.27;;;22.50;34.10;;;;;;2245519;61;20381;-62
2021/12/31 08:40:20;0.00;0.00;0.62;0.00;0.00;0.62;2.57;1.20;;;22.50;34.10;;;;;;2244784;61;20377;-63
2021/12/31 08:43:07;0.00;0.00;0.62;0.00;0.00;0.62;1.50;0.90;;;22.50;34.10;;;;;;2246213;61;20380;-62
2021/12/31 08:45:51;0.00;0.00;0.62;0.00;0.00;0.62;1.70;1.23;;;22.60;34.10;;;;;;2246218;61;20360;-62
2021/12/31 08:48:35;0.00;0.00;0.62;0.00;0.00;0.62;1.83;1.00;;;22.60;34.10;;;;;;2244572;61;20878;-63
2021/12/31 08:51:20;0.00;0.00;0.62;0.00;0.00;0.62;3.70;1.20;;;22.60;34.10;;;;;;2246130;61;20405;-64
2021/12/31 08:54:05;0.00;0.00;0.62;0.00;0.00;0.62;2.70;0.97;;;22.70;34.20;;;;;;2246157;61;20368;-64
2021/12/31 08:56:50;0.00;0.00;0.62;0.00;0.00;0.62;6.13;1.43;;;22.70;34.10;;;;;;2245468;61;20687;-62
2021/12/31 08:59:36;0.00;0.00;0.62;0.00;0.00;0.62;2.13;1.00;;;22.70;34.10;;;;;;2245997;61;20449;-64
2021/12/31 09:02:20;0.00;0.00;0.62;0.00;0.00;0.62;2.37;1.10;;;22.80;34.10;;;;;;2245258;61;20366;-65
2021/12/31 09:05:07;0.00;0.00;0.62;0.00;0.00;0.62;3.20;0.97;;;22.80;34.10;;;;;;2246041;61;20362;-62
2021/12/31 09:07:51;0.00;0.00;0.62;0.00;0.00;0.62;2.10;1.10;;;22.80;34.10;;;;;;2246145;61;20434;-64
2021/12/31 09:10:35;0.00;0.00;0.62;0.00;0.00;0.62;1.90;1.10;;;22.80;34.10;;;;;;2244903;61;20377;-62
2021/12/31 09:13:20;0.00;0.00;0.62;0.00;0.00;0.62;1.50;0.83;;;22.90;34.10;;;;;;2246181;61;20357;-63
2021/12/31 09:16:06;0.00;0.00;0.62;0.00;0.00;0.62;2.20;1.10;;;22.90;34.00;;;;;;2246183;61;20413;-64
2021/12/31 09:18:50;0.00;0.00;0.62;0.00;0.00;0.62;3.20;1.00;;;22.90;34.00;;;;;;2244135;61;20595;-62
2021/12/31 09:21:35;0.00;0.00;0.62;0.00;0.00;0.62;2.63;1.10;;;22.90;34.00;;;;;;2246234;61;20366;-63
2021/12/31 09:24:19;0.00;0.00;0.62;0.00;0.00;0.62;2.13;0.90;;;22.90;33.90;;;;;;2245549;61;20441;-63
2021/12/31 09:27:04;0.00;0.00;0.62;0.00;0.00;0.62;1.40;0.90;;;23.00;34.00;;;;;;2245904;61;20393;-62
2021/12/31 09:29:48;0.00;0.00;0.62;0.00;0.00;0.62;1.50;1.07;;;23.00;33.90;;;;;;2245968;61;20850;-59
2021/12/31 09:32:34;0.00;0.00;0.62;0.00;0.00;0.62;1.40;0.90;;;23.00;33.90;;;;;;2244584;61;20361;-63
2021/12/31 09:35:19;0.00;0.00;0.62;0.00;0.00;0.62;1.50;1.00;;;23.00;33.90;;;;;;2246029;61;20586;-62
2021/12/31 09:38:08;0.00;0.00;0.62;0.00;0.00;0.62;2.07;1.13;;;23.00;33.80;;;;;;2245998;61;20434;-63
2021/12/31 09:40:53;0.00;0.00;0.62;0.00;0.00;0.62;1.63;0.90;;;23.10;33.90;;;;;;2244440;61;20437;-64
2021/12/31 09:43:38;0.00;0.00;0.62;0.00;0.00;0.62;1.90;1.17;;;23.10;33.90;;;;;;2246191;61;20401;-61
2021/12/31 09:46:23;0.00;0.00;0.62;0.00;0.00;0.62;1.90;1.00;;;23.10;33.80;;;;;;2245785;61;20385;-63
2021/12/31 09:49:09;0.00;0.00;0.62;0.00;0.00;0.62;1.30;0.90;;;23.10;33.80;;;;;;2245236;61;20386;-64
2021/12/31 09:51:57;0.00;0.00;0.62;0.00;0.00;0.62;1.60;0.97;;;23.10;33.80;;;;;;2246156;61;20486;-62
2021/12/31 09:54:43;0.00;0.00;0.62;0.00;0.00;0.62;1.40;0.90;;;23.10;33.70;;;;;;2244935;61;20625;-64
2021/12/31 09:57:28;0.00;0.00;0.62;0.00;0.00;0.62;1.40;0.80;;;23.10;33.70;;;;;;2245543;61;20385;-62
2021/12/31 10:00:13;0.00;0.00;0.62;0.00;0.00;0.62;1.53;0.93;;;23.20;33.80;;;;;;2245896;61;20829;-64
2021/12/31 10:03:22;0.00;0.00;0.62;0.00;0.00;0.62;1.30;0.80;;;23.20;33.70;;;;;;2244450;61;20362;-64
2021/12/31 10:06:10;0.00;0.00;0.62;0.00;0.00;0.62;1.40;0.70;;;23.20;33.70;;;;;;2246096;61;20357;-60
2021/12/31 10:09:01;0.00;0.00;0.62;0.00;0.00;0.62;1.40;0.90;;;23.20;33.60;;;;;;2244875;61;20445;-63
2021/12/31 10:11:47;0.00;0.00;0.62;0.00;0.00;0.62;1.50;1.00;;;23.20;33.60;;;;;;2246066;61;20358;-63
2021/12/31 10:14:36;0.00;0.00;0.62;0.00;0.00;0.62;1.80;1.13;;;23.20;33.60;;;;;;2245940;61;20421;-63
2021/12/31 10:17:34;0.00;0.00;0.62;0.00;0.00;0.62;1.57;0.90;;;23.20;33.50;;;;;;2244369;61;20429;-63
2021/12/31 10:20:20;0.00;0.00;0.62;0.00;0.00;0.62;1.97;0.90;;;23.20;33.50;;;;;;2246139;61;20600;-62
2021/12/31 10:23:15;0.00;0.00;0.62;0.00;0.00;0.62;1.60;1.17;;;23.30;33.50;;;;;;2245048;61;20664;-61
2021/12/31 10:26:08;0.00;0.00;0.62;0.00;0.00;0.62;1.40;0.80;;;23.30;33.60;;;;;;2245178;61;20374;-60
2021/12/31 10:28:56;0.00;0.00;0.62;0.00;0.00;0.62;1.40;0.70;;;23.30;33.50;;;;;;2245834;61;20405;-63
2021/12/31 10:31:43;0.00;0.00;0.62;0.00;0.00;0.62;1.57;0.83;;;23.30;33.50;;;;;;2244420;61;20409;-62
2021/12/31 10:34:30;0.00;0.00;0.62;0.00;0.00;0.62;1.40;0.83;;;23.30;33.40;;;;;;2245854;61;20401;-64
2021/12/31 10:37:17;0.00;0.00;0.62;0.00;0.00;0.62;1.30;0.80;;;23.30;33.40;;;;;;2245692;61;20533;-63
2021/12/31 10:40:06;0.00;0.00;0.62;0.00;0.00;0.62;1.30;0.80;;;23.30;33.40;;;;;;2244492;61;20390;-63
2021/12/31 10:43:09;0.00;0.00;0.62;0.00;0.00;0.62;1.40;0.83;;;23.30;33.40;;;;;;2245931;61;20369;-64
2021/12/31 10:45:57;0.00;0.00;0.62;0.00;0.00;0.62;1.77;0.83;;;23.30;33.40;;;;;;2245079;61;20353;-60
2021/12/31 10:48:44;0.00;0.00;0.62;0.00;0.00;0.62;1.40;0.80;;;23.30;33.40;;;;;;2245393;61;20389;-61
2021/12/31 10:51:39;0.00;0.00;0.62;0.00;0.00;0.62;1.30;0.70;;;23.40;33.40;;;;;;2245620;61;20374;-64
2021/12/31 10:54:44;0.00;0.00;0.62;0.00;0.00;0.62;1.83;1.07;;;23.40;33.40;;;;;;2244446;61;20356;-64